Time;durP1;ratioP1;P1;durP2;ratioP2;P2;SDS_P1;SDS_P2;PMS_P1;PMS_P2;Temp;Humidity;BMP_temperature;BMP_pressure;BME280_temperature;BME280_humidity;BME280_pressure;Samples;Min_cycle;Max_cycle;Signal;HPM_P1;HPM_P2
2023/07/29 00:01:23;;;;;;;1999.90;999.90;;;21.10;99.90;;;;;;5052129;28;20192;-72
2023/07/29 00:03:48;;;;;;;1999.90;999.90;;;21.10;99.90;;;;;;5052244;28;20183;-72
2023/07/29 00:06:14;;;;;;;1999.90;999.90;;;21.00;99.90;;;;;;5052092;28;20565;-72
2023/07/29 00:08:40;;;;;;;1999.90;999.90;;;21.00;99.90;;;;;;5052207;28;20217;-72
2023/07/29 00:11:05;;;;;;;1999.90;999.90;;;21.00;99.90;;;;;;5052253;28;20537;-72
2023/07/29 00:13:31;;;;;;;1999.90;999.90;;;21.10;99.90;;;;;;5051861;28;20200;-72
2023/07/29 00:15:56;;;;;;;1999.90;999.90;;;21.00;99.90;;;;;;5052285;28;20189;-72
2023/07/29 00:18:23;;;;;;;1999.90;999.90;;;21.00;99.90;;;;;;5051975;28;20193;-72
2023/07/29 00:20:49;;;;;;;1999.90;999.90;;;21.00;99.90;;;;;;5052210;28;20255;-72
2023/07/29 00:23:16;;;;;;;1999.90;999.90;;;21.00;99.90;;;;;;5052054;28;20474;-72
2023/07/29 00:25:42;;;;;;;1999.90;999.90;;;21.00;99.90;;;;;;5052161;28;20429;-72
2023/07/29 00:28:08;;;;;;;1999.90;999.90;;;21.00;99.90;;;;;;5052001;28;20415;-72
2023/07/29 00:30:33;;;;;;;1999.90;999.90;;;21.00;99.90;;;;;;5051952;28;20181;-72
2023/07/29 00:32:59;;;;;;;1999.90;999.90;;;21.00;99.90;;;;;;5052016;28;20651;-72
2023/07/29 00:35:24;;;;;;;1999.90;999.90;;;20.90;99.90;;;;;;5051965;28;20673;-72
2023/07/29 00:37:50;;;;;;;1999.90;999.90;;;21.00;99.90;;;;;;5052308;28;20597;-72
2023/07/29 00:40:20;;;;;;;1999.90;999.90;;;20.90;99.90;;;;;;5052086;28;20180;-72
2023/07/29 00:42:46;;;;;;;1999.90;999.90;;;21.00;99.90;;;;;;5051761;28;20259;-72
2023/07/29 00:45:12;;;;;;;1999.90;999.90;;;20.90;99.90;;;;;;5052014;28;20528;-72
2023/07/29 00:47:38;;;;;;;1999.90;999.90;;;20.90;99.90;;;;;;5051726;28;20593;-72
2023/07/29 00:50:05;;;;;;;1999.90;999.90;;;21.00;99.90;;;;;;5051852;28;20408;-72
2023/07/29 00:52:30;;;;;;;1999.90;999.90;;;20.90;99.90;;;;;;5051474;28;20982;-72
2023/07/29 00:54:56;;;;;;;1999.90;999.90;;;20.90;99.90;;;;;;5051824;28;20418;-72
2023/07/29 00:57:23;;;;;;;1999.90;999.90;;;20.90;99.90;;;;;;5051856;28;20186;-72
2023/07/29 00:59:49;;;;;;;1999.90;999.90;;;20.90;99.90;;;;;;5051947;28;20179;-72
2023/07/29 01:02:14;;;;;;;1999.90;999.90;;;20.90;99.90;;;;;;5051306;28;20490;-72
2023/07/29 01:04:40;;;;;;;1999.90;999.90;;;20.90;99.90;;;;;;5051706;28;20486;-72
2023/07/29 01:07:08;;;;;;;1999.90;999.90;;;20.90;99.90;;;;;;5052769;28;20252;-72
2023/07/29 01:09:51;;;;;;;1999.90;999.90;;;20.90;99.90;;;;;;5055587;28;20177;-72
2023/07/29 01:12:51;;;;;;;1999.90;999.90;;;20.90;99.90;;;;;;5055910;28;20455;-72
2023/07/29 01:15:33;;;;;;;1999.90;999.90;;;21.00;99.90;;;;;;5048618;28;20430;-72
2023/07/29 01:18:08;;;;;;;1999.90;999.90;;;21.00;99.90;;;;;;5055534;28;20459;-72
2023/07/29 01:20:38;;;;;;;1999.90;999.90;;;21.00;99.90;;;;;;5056189;28;20505;-72
2023/07/29 01:23:04;;;;;;;1999.90;999.90;;;21.00;99.90;;;;;;5056237;28;20410;-72
2023/07/29 01:25:30;;;;;;;1999.90;999.90;;;20.90;99.90;;;;;;5055883;28;20528;-72
2023/07/29 01:27:55;;;;;;;1999.90;999.90;;;20.90;99.90;;;;;;5056055;28;20179;-72
2023/07/29 01:30:25;;;;;;;1999.90;999.90;;;20.80;99.90;;;;;;5056189;28;20637;-72
2023/07/29 01:33:13;;;;;;;1999.90;999.90;;;20.70;99.90;;;;;;5055519;28;20460;-72
2023/07/29 01:35:47;;;;;;;1999.90;999.90;;;20.60;99.90;;;;;;5056265;28;20515;-72
2023/07/29 01:38:35;;;;;;;1999.90;999.90;;;20.50;99.90;;;;;;5055962;28;20878;-72
2023/07/29 01:41:02;;;;;;;1999.90;999.90;;;20.60;99.90;;;;;;5055748;28;20398;-72
2023/07/29 01:43:29;;;;;;;1999.90;999.90;;;20.50;99.90;;;;;;5055868;28;20415;-72
2023/07/29 01:45:55;;;;;;;1999.90;999.90;;;20.40;99.90;;;;;;5055961;28;21112;-72
2023/07/29 01:48:21;;;;;;;1999.90;999.90;;;20.30;99.90;;;;;;5055725;28;20416;-72
2023/07/29 01:50:47;;;;;;;1999.90;999.90;;;20.30;99.90;;;;;;5055946;28;20461;-72
2023/07/29 01:53:12;;;;;;;1999.90;999.90;;;20.20;99.90;;;;;;5055648;28;20982;-72
2023/07/29 01:55:39;;;;;;;1999.90;999.90;;;20.20;99.90;;;;;;5055724;28;20696;-72
2023/07/29 01:58:04;;;;;;;1999.90;999.90;;;20.20;99.90;;;;;;5055841;28;20168;-72
2023/07/29 02:00:30;;;;;;;1999.90;999.90;;;20.20;99.90;;;;;;5056267;28;20418;-72
2023/07/29 02:02:56;;;;;;;1999.90;999.90;;;20.20;99.90;;;;;;5055104;28;20179;-72
2023/07/29 02:05:21;;;;;;;1999.90;999.90;;;20.10;99.90;;;;;;5054754;28;20199;-72
2023/07/29 02:07:47;;;;;;;1999.90;999.90;;;20.20;99.90;;;;;;5055604;28;20250;-72
2023/07/29 02:10:12;;;;;;;1999.90;999.90;;;20.20;99.90;;;;;;5055317;28;20174;-72
2023/07/29 02:12:38;;;;;;;1999.90;999.90;;;20.20;99.90;;;;;;5054983;28;20219;-72
2023/07/29 02:15:04;;;;;;;1999.90;999.90;;;20.20;99.90;;;;;;5053864;28;20673;-72
2023/07/29 02:17:31;;;;;;;1999.90;999.90;;;20.20;99.90;;;;;;5052955;28;20250;-71
2023/07/29 02:19:56;;;;;;;1999.90;999.90;;;20.20;99.90;;;;;;5053597;28;20437;-72
2023/07/29 02:22:22;;;;;;;1999.90;999.90;;;20.20;99.90;;;;;;5053502;28;20445;-71
2023/07/29 02:24:48;;;;;;;1999.90;999.90;;;20.20;99.90;;;;;;5053839;28;20186;-71
2023/07/29 02:27:13;;;;;;;1999.90;999.90;;;20.10;99.90;;;;;;5053908;28;20171;-71
2023/07/29 02:29:39;;;;;;;1999.90;999.90;;;20.10;99.90;;;;;;5053945;28;20181;-71
2023/07/29 02:32:04;;;;;;;1999.90;999.90;;;20.10;99.90;;;;;;5053376;28;20594;-71
2023/07/29 02:34:30;;;;;;;1999.90;999.90;;;20.10;99.90;;;;;;5053718;28;20174;-72
2023/07/29 02:36:56;;;;;;;1999.90;999.90;;;20.00;99.90;;;;;;5053635;28;20290;-71
2023/07/29 02:39:23;;;;;;;1999.90;999.90;;;20.00;99.90;;;;;;5053670;28;20490;-71
2023/07/29 02:41:48;;;;;;;1999.90;999.90;;;20.00;99.90;;;;;;5053363;28;20254;-71
2023/07/29 02:44:15;;;;;;;1999.90;999.90;;;20.00;99.90;;;;;;5053577;28;20494;-71
2023/07/29 02:46:41;;;;;;;1999.90;999.90;;;19.90;99.90;;;;;;5053415;28;20221;-72
2023/07/29 02:49:06;;;;;;;1999.90;999.90;;;19.80;99.90;;;;;;5053447;28;20836;-71
2023/07/29 02:51:32;;;;;;;1999.90;999.90;;;19.80;99.90;;;;;;5053155;28;20178;-72
2023/07/29 02:53:57;;;;;;;1999.90;999.90;;;19.70;99.90;;;;;;5053331;28;20201;-72
2023/07/29 02:56:23;;;;;;;1999.90;999.90;;;19.80;99.90;;;;;;5053215;28;20192;-72
2023/07/29 02:58:51;;;;;;;1999.90;999.90;;;19.80;99.90;;;;;;5053311;28;20588;-71
2023/07/29 03:01:16;;;;;;;1999.90;999.90;;;19.70;99.90;;;;;;5053002;28;20195;-72
2023/07/29 03:03:42;;;;;;;1999.90;999.90;;;19.70;99.90;;;;;;5053114;28;20750;-72
2023/07/29 03:06:10;;;;;;;1999.90;999.90;;;19.80;99.90;;;;;;5053106;28;20191;-72
2023/07/29 03:08:36;;;;;;;1999.90;999.90;;;19.80;99.90;;;;;;5053090;28;20640;-72
2023/07/29 03:11:10;;;;;;;1999.90;999.90;;;19.80;99.90;;;;;;5052886;28;20501;-72
2023/07/29 03:13:35;;;;;;;1999.90;999.90;;;19.80;99.90;;;;;;5052855;28;20502;-72
2023/07/29 03:16:19;;;;;;;1999.90;999.90;;;19.70;99.90;;;;;;5052851;28;20508;-71
2023/07/29 03:18:45;;;;;;;1999.90;999.90;;;19.70;99.90;;;;;;5052848;28;20195;-72
2023/07/29 03:21:10;;;;;;;1999.90;999.90;;;19.80;99.90;;;;;;5053019;28;20803;-72
2023/07/29 03:23:37;;;;;;;1999.90;999.90;;;19.80;99.90;;;;;;5052775;28;20234;-71
2023/07/29 03:26:10;;;;;;;1999.90;999.90;;;19.70;99.90;;;;;;5052698;28;20453;-72
2023/07/29 03:28:41;;;;;;;1999.90;999.90;;;19.80;99.90;;;;;;5052655;28;20448;-72
2023/07/29 03:31:07;;;;;;;1999.90;999.90;;;19.80;99.90;;;;;;5051851;28;20471;-71
2023/07/29 03:33:32;;;;;;;1999.90;999.90;;;19.70;99.90;;;;;;5052462;28;20461;-72
2023/07/29 03:35:58;;;;;;;1999.90;999.90;;;19.60;99.90;;;;;;5052479;28;20430;-72
2023/07/29 03:38:24;;;;;;;1999.90;999.90;;;19.60;99.90;;;;;;5052680;28;20205;-72
2023/07/29 03:40:50;;;;;;;1999.90;999.90;;;19.50;99.90;;;;;;5052451;28;20213;-72
2023/07/29 03:43:16;;;;;;;1999.90;999.90;;;19.50;99.90;;;;;;5052219;28;20192;-72
2023/07/29 03:45:41;;;;;;;1999.90;999.90;;;19.40;99.90;;;;;;5052269;28;20432;-72
2023/07/29 03:48:07;;;;;;;1999.90;999.90;;;19.50;99.90;;;;;;5052393;28;20172;-71
2023/07/29 03:50:36;;;;;;;1999.90;999.90;;;19.40;99.90;;;;;;5052317;28;20175;-72
2023/07/29 03:53:03;;;;;;;1999.90;999.90;;;19.30;99.90;;;;;;5051978;28;20200;-72
2023/07/29 03:55:31;;;;;;;1999.90;999.90;;;19.30;99.90;;;;;;5052154;28;20433;-72
2023/07/29 03:58:01;;;;;;;1999.90;999.90;;;19.30;99.90;;;;;;5052125;28;20424;-72
2023/07/29 04:00:26;;;;;;;1999.90;999.90;;;19.20;99.90;;;;;;5052148;28;20412;-71
2023/07/29 04:02:52;;;;;;;1999.90;999.90;;;19.30;99.90;;;;;;5051863;28;20517;-72
2023/07/29 04:05:18;;;;;;;1999.90;999.90;;;19.20;99.90;;;;;;5052059;28;20677;-72
2023/07/29 04:07:44;;;;;;;1999.90;999.90;;;19.20;99.90;;;;;;5052093;28;20637;-72
2023/07/29 04:10:10;;;;;;;1999.90;999.90;;;19.20;99.90;;;;;;5052086;28;20506;-72
2023/07/29 04:12:35;;;;;;;1999.90;999.90;;;19.10;99.90;;;;;;5051581;28;20565;-72
2023/07/29 04:15:01;;;;;;;1999.90;999.90;;;19.20;99.90;;;;;;5051903;28;20272;-72
2023/07/29 04:17:27;;;;;;;1999.90;999.90;;;19.30;99.90;;;;;;5051873;28;20644;-72
2023/07/29 04:19:52;;;;;;;1999.90;999.90;;;19.30;99.90;;;;;;5051938;28;20748;-72
2023/07/29 04:22:18;;;;;;;1999.90;999.90;;;19.20;99.90;;;;;;5051675;28;20224;-71
2023/07/29 04:24:43;;;;;;;1999.90;999.90;;;19.30;99.90;;;;;;5051839;28;20177;-71
2023/07/29 04:27:09;;;;;;;1999.90;999.90;;;19.30;99.90;;;;;;5051830;28;20177;-71
2023/07/29 04:29:35;;;;;;;1999.90;999.90;;;19.20;99.90;;;;;;5051820;28;20718;-71
2023/07/29 04:32:02;;;;;;;1999.90;999.90;;;19.20;99.90;;;;;;5051458;28;20175;-72
2023/07/29 04:34:28;;;;;;;1999.90;999.90;;;19.20;99.90;;;;;;5051815;28;20497;-71
2023/07/29 04:36:54;;;;;;;1999.90;999.90;;;19.20;99.90;;;;;;5051748;28;20500;-72
2023/07/29 04:39:19;;;;;;;1999.90;999.90;;;19.10;99.90;;;;;;5051789;28;20169;-72
2023/07/29 04:41:45;;;;;;;1999.90;999.90;;;19.10;99.90;;;;;;5053649;28;20185;-72
2023/07/29 04:44:10;;;;;;;1999.90;999.90;;;19.10;99.90;;;;;;5055786;28;20200;-72
2023/07/29 04:46:36;;;;;;;1999.90;999.90;;;19.10;99.90;;;;;;5055706;28;20280;-72
2023/07/29 04:49:02;;;;;;;1999.90;999.90;;;19.10;99.90;;;;;;5055788;28;20173;-71
2023/07/29 04:51:28;;;;;;;1999.90;999.90;;;19.10;99.90;;;;;;5055449;28;20203;-72
2023/07/29 04:53:53;;;;;;;1999.90;999.90;;;19.10;99.90;;;;;;5055591;28;20810;-72
2023/07/29 04:56:19;;;;;;;1999.90;999.90;;;19.10;99.90;;;;;;5055487;28;20195;-72
2023/07/29 04:58:44;;;;;;;1999.90;999.90;;;19.10;99.90;;;;;;5055520;28;20186;-72
2023/07/29 05:01:10;;;;;;;1999.90;999.90;;;19.20;99.90;;;;;;5055261;28;20253;-72
2023/07/29 05:03:36;;;;;;;1999.90;999.90;;;19.20;99.90;;;;;;5055444;28;20178;-72
2023/07/29 05:06:02;;;;;;;1999.90;999.90;;;19.30;99.90;;;;;;5055359;28;20211;-72
2023/07/29 05:08:28;;;;;;;1999.90;999.90;;;19.20;99.90;;;;;;5055354;28;20401;-72
2023/07/29 05:10:54;;;;;;;1999.90;999.90;;;19.30;99.90;;;;;;5055073;28;20178;-72
2023/07/29 05:13:20;;;;;;;1999.90;999.90;;;19.20;99.90;;;;;;5055116;28;20514;-72
2023/07/29 05:15:47;;;;;;;1999.90;999.90;;;19.20;99.90;;;;;;5055291;28;20425;-72
2023/07/29 05:18:13;;;;;;;1999.90;999.90;;;19.20;99.90;;;;;;5055003;28;20919;-72
2023/07/29 05:20:39;;;;;;;1999.90;999.90;;;19.10;99.90;;;;;;5055157;28;20414;-72
2023/07/29 05:23:04;;;;;;;1999.90;999.90;;;19.10;99.90;;;;;;5054874;28;20186;-72
2023/07/29 05:25:30;;;;;;;1999.90;999.90;;;19.10;99.90;;;;;;5054945;28;20328;-72
2023/07/29 05:27:57;;;;;;;1999.90;999.90;;;19.20;99.90;;;;;;5054959;28;20178;-72
2023/07/29 05:30:22;;;;;;;1999.90;999.90;;;19.10;99.90;;;;;;5055172;28;20557;-72
2023/07/29 05:32:48;;;;;;;1999.90;999.90;;;19.20;99.90;;;;;;5054528;28;20475;-72
2023/07/29 05:35:14;;;;;;;1999.90;999.90;;;19.20;99.90;;;;;;5054814;28;20687;-72
2023/07/29 05:37:40;;;;;;;1999.90;999.90;;;19.20;99.90;;;;;;5054824;28;20174;-71
2023/07/29 05:40:07;;;;;;;1999.90;999.90;;;19.20;99.90;;;;;;5054741;28;20489;-72
2023/07/29 05:42:33;;;;;;;1999.90;999.90;;;19.20;99.90;;;;;;5054378;28;20416;-72
2023/07/29 05:44:59;;;;;;;1999.90;999.90;;;19.20;99.90;;;;;;5054706;28;20435;-72
2023/07/29 05:47:24;;;;;;;1999.90;999.90;;;19.20;99.90;;;;;;5054658;28;20414;-72
2023/07/29 05:49:50;;;;;;;1999.90;999.90;;;19.10;99.90;;;;;;5054608;28;20644;-72
2023/07/29 05:52:16;;;;;;;1999.90;999.90;;;19.20;99.90;;;;;;5053569;28;20199;-71
2023/07/29 05:54:42;;;;;;;1999.90;999.90;;;19.20;99.90;;;;;;5054167;28;20240;-72
2023/07/29 05:57:09;;;;;;;1999.90;999.90;;;19.20;99.90;;;;;;5054628;28;20179;-72
2023/07/29 05:59:35;;;;;;;1999.90;999.90;;;19.20;99.90;;;;;;5054436;28;20442;-72
2023/07/29 06:02:00;;;;;;;1999.90;999.90;;;19.20;99.90;;;;;;5054097;28;20409;-73
2023/07/29 06:04:26;;;;;;;1999.90;999.90;;;19.20;99.90;;;;;;5054315;28;20211;-71
2023/07/29 06:06:51;;;;;;;1999.90;999.90;;;19.20;99.90;;;;;;5054205;28;20250;-72
2023/07/29 06:09:17;;;;;;;1999.90;999.90;;;19.30;99.90;;;;;;5054248;28;20178;-73
2023/07/29 06:11:42;;;;;;;1999.90;999.90;;;19.20;99.90;;;;;;5053902;28;20175;-72
2023/07/29 06:14:09;;;;;;;1999.90;999.90;;;19.20;99.90;;;;;;5054048;28;20214;-72
2023/07/29 06:16:34;;;;;;;1999.90;999.90;;;19.20;99.90;;;;;;5054086;28;20195;-72
2023/07/29 06:19:00;;;;;;;1999.90;999.90;;;19.10;99.90;;;;;;5054021;28;20447;-72
2023/07/29 06:21:25;;;;;;;1999.90;999.90;;;19.20;99.90;;;;;;5053819;28;20253;-72
2023/07/29 06:23:51;;;;;;;1999.90;999.90;;;19.30;99.90;;;;;;5053935;28;20176;-72
2023/07/29 06:26:17;;;;;;;1999.90;999.90;;;19.40;99.90;;;;;;5053932;28;20672;-72
2023/07/29 06:28:42;;;;;;;1999.90;999.90;;;19.40;99.90;;;;;;5053906;28;20181;-72
2023/07/29 06:31:08;;;;;;;1999.90;999.90;;;19.40;99.90;;;;;;5053607;28;20171;-72
2023/07/29 06:33:33;;;;;;;1999.90;999.90;;;19.40;99.90;;;;;;5053826;28;20204;-72
2023/07/29 06:35:59;;;;;;;1999.90;999.90;;;19.40;99.90;;;;;;5053708;28;20198;-72
2023/07/29 06:38:24;;;;;;;1999.90;999.90;;;19.50;99.90;;;;;;5053813;28;20608;-72
2023/07/29 06:40:50;;;;;;;1999.90;999.90;;;19.60;99.90;;;;;;5053592;28;20173;-73
2023/07/29 06:43:16;;;;;;;1999.90;999.90;;;19.80;99.90;;;;;;5053798;28;20171;-72
2023/07/29 06:45:42;;;;;;;1999.90;999.90;;;20.00;99.90;;;;;;5053500;28;20954;-73
2023/07/29 06:48:08;;;;;;;1999.90;999.90;;;20.00;99.90;;;;;;5053534;28;20424;-73
2023/07/29 06:50:34;;;;;;;1999.90;999.90;;;20.10;99.90;;;;;;5053498;28;20776;-73
2023/07/29 06:52:59;;;;;;;1999.90;999.90;;;20.10;99.90;;;;;;5053006;28;20228;-74
2023/07/29 06:55:25;;;;;;;1999.90;999.90;;;20.10;99.90;;;;;;5053287;28;20304;-73
2023/07/29 06:57:50;;;;;;;1999.90;999.90;;;20.20;99.90;;;;;;5053306;28;20171;-73
2023/07/29 07:00:16;;;;;;;1999.90;999.90;;;20.20;99.90;;;;;;5053302;28;20192;-73
2023/07/29 07:02:42;;;;;;;1999.90;999.90;;;20.30;99.90;;;;;;5053013;28;20206;-73
2023/07/29 07:05:07;;;;;;;1999.90;999.90;;;20.30;99.90;;;;;;5052013;28;20664;-74
2023/07/29 07:07:33;;;;;;;1999.90;999.90;;;20.30;99.90;;;;;;5053137;28;20189;-73
2023/07/29 07:09:59;;;;;;;1999.90;999.90;;;20.30;99.90;;;;;;5053073;28;20211;-73
2023/07/29 07:12:24;;;;;;;1999.90;999.90;;;20.20;99.90;;;;;;5052779;28;20260;-73
2023/07/29 07:14:50;;;;;;;1999.90;999.90;;;20.40;99.90;;;;;;5052947;28;20175;-74
2023/07/29 07:17:16;;;;;;;1999.90;999.90;;;20.40;99.90;;;;;;5052868;28;20175;-73
2023/07/29 07:19:41;;;;;;;1999.90;999.90;;;20.50;99.90;;;;;;5052966;28;20187;-73
2023/07/29 07:22:07;;;;;;;1999.90;999.90;;;20.50;99.90;;;;;;5052615;28;20552;-73
2023/07/29 07:24:33;;;;;;;1999.90;999.90;;;20.50;99.90;;;;;;5052784;28;20164;-73
2023/07/29 07:26:58;;;;;;;1999.90;999.90;;;20.60;99.90;;;;;;5052615;28;20206;-74
2023/07/29 07:29:24;;;;;;;1999.90;999.90;;;20.40;99.90;;;;;;5052890;28;20324;-73
2023/07/29 07:31:52;;;;;;;1999.90;999.90;;;20.40;99.90;;;;;;5052443;28;20176;-73
2023/07/29 07:34:18;;;;;;;1999.90;999.90;;;20.50;99.90;;;;;;5052710;28;20180;-73
2023/07/29 07:36:44;;;;;;;1999.90;999.90;;;20.40;99.90;;;;;;5052420;28;20451;-73
2023/07/29 07:39:09;;;;;;;1999.90;999.90;;;20.50;99.90;;;;;;5052507;28;20426;-73
2023/07/29 07:41:35;;;;;;;1999.90;999.90;;;20.50;99.90;;;;;;5052394;28;20658;-73
2023/07/29 07:44:01;;;;;;;1999.90;999.90;;;20.50;99.90;;;;;;5052469;28;20261;-73
2023/07/29 07:46:26;;;;;;;1999.90;999.90;;;20.40;99.90;;;;;;5052340;28;20895;-73
2023/07/29 07:48:52;;;;;;;1999.90;999.90;;;20.40;99.90;;;;;;5052413;28;20214;-73
2023/07/29 07:51:17;;;;;;;1999.90;999.90;;;20.40;99.90;;;;;;5052030;28;20228;-73
2023/07/29 07:53:43;;;;;;;1999.90;999.90;;;20.30;99.90;;;;;;5052244;28;20234;-74
2023/07/29 07:56:08;;;;;;;1999.90;999.90;;;20.40;99.90;;;;;;5051496;28;20680;-73
2023/07/29 07:58:34;;;;;;;1999.90;999.90;;;20.40;99.90;;;;;;5050810;28;20213;-73
2023/07/29 08:01:07;;;;;;;1999.90;999.90;;;20.40;99.90;;;;;;5052051;28;20167;-73
2023/07/29 08:03:33;;;;;;;1999.90;999.90;;;20.60;99.90;;;;;;5052038;28;20175;-73
2023/07/29 08:05:59;;;;;;;1999.90;999.90;;;20.90;99.90;;;;;;5052022;28;20425;-73
2023/07/29 08:08:26;;;;;;;1999.90;999.90;;;21.00;99.90;;;;;;5052058;28;20563;-73
2023/07/29 08:10:54;;;;;;;1999.90;999.90;;;21.20;99.90;;;;;;5051898;28;20983;-73
2023/07/29 08:13:19;;;;;;;1999.90;999.90;;;21.40;99.90;;;;;;5051824;28;20452;-74
2023/07/29 08:15:49;;;;;;;1999.90;999.90;;;21.60;99.90;;;;;;5051533;28;20477;-73
2023/07/29 08:18:16;;;;;;;1999.90;999.90;;;21.70;99.90;;;;;;5051788;28;20184;-73
2023/07/29 08:20:50;;;;;;;1999.90;999.90;;;21.60;99.90;;;;;;5051927;28;20515;-73
2023/07/29 08:23:16;;;;;;;1999.90;999.90;;;21.50;99.90;;;;;;5051734;28;20395;-74
2023/07/29 08:25:41;;;;;;;1999.90;999.90;;;21.50;99.90;;;;;;5051804;28;20528;-73
2023/07/29 08:28:07;;;;;;;1999.90;999.90;;;21.50;99.90;;;;;;5051794;28;20185;-73
2023/07/29 08:30:33;;;;;;;1999.90;999.90;;;21.50;99.90;;;;;;5051780;28;20174;-73
2023/07/29 08:32:58;;;;;;;1999.90;999.90;;;21.70;99.90;;;;;;5051392;28;20246;-74
2023/07/29 08:35:24;;;;;;;1999.90;999.90;;;21.80;99.90;;;;;;5051336;28;20590;-73
2023/07/29 08:37:49;;;;;;;1999.90;999.90;;;21.70;99.90;;;;;;5048492;28;20165;-72
2023/07/29 08:40:15;;;;;;;1999.90;999.90;;;21.80;99.90;;;;;;5043517;28;20176;-73
2023/07/29 08:42:47;;;;;;;1999.90;999.90;;;21.90;99.90;;;;;;5045862;28;20259;-73
2023/07/29 08:45:14;;;;;;;1999.90;999.90;;;22.00;99.90;;;;;;5044010;28;20730;-74
2023/07/29 08:47:40;;;;;;;1999.90;999.90;;;22.10;99.90;;;;;;5043234;28;20431;-75
2023/07/29 08:50:07;;;;;;;1999.90;999.90;;;22.10;99.90;;;;;;5046232;28;20450;-73
2023/07/29 08:52:37;;;;;;;1999.90;999.90;;;22.10;99.90;;;;;;5045727;28;20229;-74
2023/07/29 08:55:03;;;;;;;1999.90;999.90;;;22.00;99.90;;;;;;5044179;28;20427;-72
2023/07/29 08:57:30;;;;;;;1999.90;999.90;;;22.10;99.90;;;;;;5046580;28;20441;-73
2023/07/29 08:59:56;;;;;;;1999.90;999.90;;;22.00;99.90;;;;;;5046215;28;20425;-72
2023/07/29 09:02:22;;;;;;;1999.90;999.90;;;22.10;99.90;;;;;;5045744;28;20409;-73
2023/07/29 09:04:48;;;;;;;1999.90;999.90;;;22.20;99.90;;;;;;5040792;28;20436;-74
2023/07/29 09:07:14;;;;;;;1999.90;999.90;;;22.20;99.90;;;;;;5046103;28;20190;-73
2023/07/29 09:09:39;;;;;;;1999.90;999.90;;;22.30;99.90;;;;;;5046203;28;20178;-73
2023/07/29 09:12:06;;;;;;;1999.90;999.90;;;22.50;99.90;;;;;;5046863;28;20421;-74
2023/07/29 09:14:31;;;;;;;1999.90;999.90;;;22.50;99.90;;;;;;5044709;28;20224;-75
2023/07/29 09:16:57;;;;;;;1999.90;999.90;;;22.60;99.90;;;;;;5045473;28;20461;-75
2023/07/29 09:19:26;;;;;;;1999.90;999.90;;;22.50;99.90;;;;;;5046371;28;20196;-74
2023/07/29 09:21:52;;;;;;;1999.90;999.90;;;22.80;99.90;;;;;;5045896;28;20178;-73
2023/07/29 09:24:20;;;;;;;1999.90;999.90;;;22.90;99.90;;;;;;5044673;28;20448;-73
2023/07/29 09:26:50;;;;;;;1999.90;999.90;;;23.00;99.90;;;;;;5046928;28;20207;-73
2023/07/29 09:29:16;;;;;;;1999.90;999.90;;;23.00;99.90;;;;;;5048701;28;20421;-73
2023/07/29 09:31:41;;;;;;;1999.90;999.90;;;23.00;99.90;;;;;;5048577;28;20983;-73
2023/07/29 09:34:08;;;;;;;1999.90;999.90;;;23.10;99.90;;;;;;5050135;28;20612;-73
2023/07/29 09:36:34;;;;;;;1999.90;999.90;;;23.20;99.90;;;;;;5049223;28;20611;-73
2023/07/29 09:38:59;;;;;;;1999.90;999.90;;;23.30;99.90;;;;;;5049175;28;20899;-73
2023/07/29 09:41:27;;;;;;;1999.90;999.90;;;23.20;99.90;;;;;;5050205;28;20425;-71
2023/07/29 09:44:01;;;;;;;1999.90;999.90;;;23.20;99.90;;;;;;5050101;28;20193;-74
2023/07/29 09:46:34;;;;;;;1999.90;999.90;;;23.10;99.90;;;;;;5044400;28;20520;-73
2023/07/29 09:48:59;;;;;;;1999.90;999.90;;;22.80;99.90;;;;;;5047160;28;20455;-73
2023/07/29 09:51:25;;;;;;;1999.90;999.90;;;22.50;99.90;;;;;;5048992;28;20404;-72
2023/07/29 09:53:52;;;;;;;1999.90;999.90;;;22.40;99.90;;;;;;5049136;28;20206;-73
2023/07/29 09:56:18;;;;;;;1999.90;999.90;;;22.30;99.90;;;;;;5049261;28;20257;-72
2023/07/29 09:58:45;;;;;;;1999.90;999.90;;;22.20;99.90;;;;;;5050432;28;20417;-73
2023/07/29 10:01:11;;;;;;;1999.90;999.90;;;22.20;99.90;;;;;;5049371;28;20437;-73
2023/07/29 10:03:37;;;;;;;1999.90;999.90;;;22.20;99.90;;;;;;5049376;28;20425;-73
2023/07/29 10:06:05;;;;;;;1999.90;999.90;;;22.00;99.90;;;;;;5050067;28;20429;-73
2023/07/29 10:08:40;;;;;;;1999.90;999.90;;;21.90;99.90;;;;;;5049300;28;20407;-73
2023/07/29 10:11:08;;;;;;;1999.90;999.90;;;21.80;99.90;;;;;;5048661;28;20410;-74
2023/07/29 10:13:33;;;;;;;1999.90;999.90;;;21.60;99.90;;;;;;5048939;28;20465;-73
2023/07/29 10:16:02;;;;;;;1999.90;999.90;;;21.50;99.90;;;;;;5049474;28;20808;-73
2023/07/29 10:18:28;;;;;;;1999.90;999.90;;;21.50;99.90;;;;;;5049366;28;20216;-73
2023/07/29 10:20:56;;;;;;;1999.90;999.90;;;21.60;99.90;;;;;;5048841;28;20451;-73
2023/07/29 10:23:23;;;;;;;1999.90;999.90;;;21.50;99.90;;;;;;5048955;28;20228;-73
2023/07/29 10:26:05;;;;;;;1999.90;999.90;;;21.50;99.90;;;;;;5049710;28;20420;-73
2023/07/29 10:28:32;;;;;;;1999.90;999.90;;;21.30;99.90;;;;;;5049934;28;20419;-73
2023/07/29 10:30:59;;;;;;;1999.90;999.90;;;21.40;99.90;;;;;;5047988;28;20422;-72
2023/07/29 10:33:25;;;;;;;1999.90;999.90;;;21.50;99.90;;;;;;5048499;28;20521;-73
2023/07/29 10:35:52;;;;;;;1999.90;999.90;;;21.60;99.90;;;;;;5049388;28;20441;-73
2023/07/29 10:38:21;;;;;;;1999.90;999.90;;;21.60;99.90;;;;;;5048448;28;20423;-73
2023/07/29 10:40:51;;;;;;;1999.90;999.90;;;21.80;99.90;;;;;;5048732;28;20397;-73
2023/07/29 10:43:25;;;;;;;1999.90;999.90;;;21.90;99.90;;;;;;5048762;28;20415;-72
2023/07/29 10:45:50;;;;;;;1999.90;999.90;;;22.10;99.90;;;;;;5049100;28;20521;-73
2023/07/29 10:48:37;;;;;;;1999.90;999.90;;;22.30;99.90;;;;;;5048792;28;21214;-73
2023/07/29 10:51:26;;;;;;;1999.90;999.90;;;22.70;99.90;;;;;;5048871;28;20203;-72
2023/07/29 10:53:55;;;;;;;1999.90;999.90;;;22.90;99.90;;;;;;5047763;28;20545;-73
2023/07/29 10:56:34;;;;;;;1999.90;999.90;;;23.10;99.90;;;;;;5048875;28;20438;-73
2023/07/29 10:59:19;;;;;;;1999.90;999.90;;;23.20;99.90;;;;;;5048788;28;20445;-73
2023/07/29 11:02:00;;;;;;;1999.90;999.90;;;23.30;99.90;;;;;;5047586;28;20426;-73
2023/07/29 11:04:30;;;;;;;1999.90;999.90;;;23.60;99.90;;;;;;5048356;28;20419;-73
2023/07/29 11:07:06;;;;;;;1999.90;999.90;;;23.80;99.90;;;;;;5048255;28;20543;-73
2023/07/29 11:09:58;;;;;;;1999.90;999.90;;;24.00;99.90;;;;;;5047755;28;20917;-73
2023/07/29 11:12:47;;;;;;;1999.90;999.90;;;24.30;99.90;;;;;;5047779;28;20490;-73
2023/07/29 11:15:24;;;;;;;1999.90;999.90;;;24.40;99.90;;;;;;5047784;28;20423;-74
2023/07/29 11:17:58;;;;;;;1999.90;999.90;;;24.50;99.90;;;;;;5048250;28;20927;-73
2023/07/29 11:20:32;;;;;;;1999.90;999.90;;;24.40;99.90;;;;;;5048782;28;20493;-73
2023/07/29 11:23:00;;;;;;;1999.90;999.90;;;24.30;99.90;;;;;;5048042;28;20792;-73
2023/07/29 11:25:27;;;;;;;1999.90;999.90;;;24.40;99.90;;;;;;5048019;28;20412;-74
2023/07/29 11:27:54;;;;;;;1999.90;999.90;;;24.70;99.90;;;;;;5047853;28;20496;-74
2023/07/29 11:30:20;;;;;;;1999.90;999.90;;;24.90;99.90;;;;;;5048128;28;20444;-74
2023/07/29 11:32:46;;;;;;;1999.90;999.90;;;25.10;99.90;;;;;;5047290;28;20454;-74
2023/07/29 11:35:17;;;;;;;1999.90;999.90;;;25.20;99.90;;;;;;5047406;28;20196;-74
2023/07/29 11:37:46;;;;;;;1999.90;999.90;;;25.20;99.90;;;;;;5047834;28;20465;-75
2023/07/29 11:40:22;;;;;;;1999.90;999.90;;;25.20;99.90;;;;;;5048683;28;20381;-74
2023/07/29 11:42:52;;;;;;;1999.90;999.90;;;25.20;99.90;;;;;;5048172;28;20437;-74
2023/07/29 11:45:19;;;;;;;1999.90;999.90;;;25.20;99.90;;;;;;5047345;28;20799;-73
2023/07/29 11:47:45;;;;;;;1999.90;999.90;;;25.20;99.90;;;;;;5047690;28;20423;-76
2023/07/29 11:50:15;;;;;;;1999.90;999.90;;;25.40;99.90;;;;;;5047835;28;20420;-75
2023/07/29 11:52:42;;;;;;;1999.90;999.90;;;25.60;99.90;;;;;;5046524;28;20529;-73
2023/07/29 11:55:09;;;;;;;1999.90;999.90;;;25.60;99.90;;;;;;5047079;28;20430;-73
2023/07/29 11:57:37;;;;;;;1999.90;999.90;;;25.30;99.90;;;;;;5048113;28;20418;-78
2023/07/29 12:00:09;;;;;;;1999.90;999.90;;;25.20;99.90;;;;;;5047767;28;20406;-75